sensor_id;sensor_type;location;lat;lon;timestamp;P1;durP1;ratioP1;P2;durP2;ratioP2
46363;SDS011;32071;49.036;9.344;2023-02-20T00:02:22;10.17;;;5.03;;
46363;SDS011;32071;49.036;9.344;2023-02-20T00:04:48;6.00;;;4.10;;
46363;SDS011;32071;49.036;9.344;2023-02-20T00:07:13;6.93;;;4.17;;
46363;SDS011;32071;49.036;9.344;2023-02-20T00:09:39;8.90;;;5.20;;
46363;SDS011;32071;49.036;9.344;2023-02-20T00:12:04;10.07;;;4.60;;
46363;SDS011;32071;49.036;9.344;2023-02-20T00:14:30;7.63;;;5.10;;
46363;SDS011;32071;49.036;9.344;2023-02-20T00:16:56;6.60;;;4.43;;
46363;SDS011;32071;49.036;9.344;2023-02-20T00:19:22;7.20;;;4.43;;
46363;SDS011;32071;49.036;9.344;2023-02-20T00:21:48;8.50;;;4.87;;
46363;SDS011;32071;49.036;9.344;2023-02-20T00:24:16;7.20;;;4.57;;
46363;SDS011;32071;49.036;9.344;2023-02-20T00:26:50;11.90;;;4.57;;
46363;SDS011;32071;49.036;9.344;2023-02-20T00:29:17;9.03;;;4.40;;
46363;SDS011;32071;49.036;9.344;2023-02-20T00:31:49;8.40;;;4.90;;
46363;SDS011;32071;49.036;9.344;2023-02-20T00:34:15;6.10;;;3.87;;
46363;SDS011;32071;49.036;9.344;2023-02-20T00:36:41;7.83;;;4.70;;
46363;SDS011;32071;49.036;9.344;2023-02-20T00:39:07;12.13;;;4.60;;
46363;SDS011;32071;49.036;9.344;2023-02-20T00:41:33;8.57;;;4.47;;
46363;SDS011;32071;49.036;9.344;2023-02-20T00:43:58;7.43;;;4.17;;
46363;SDS011;32071;49.036;9.344;2023-02-20T00:46:25;6.20;;;3.80;;
46363;SDS011;32071;49.036;9.344;2023-02-20T00:48:50;7.90;;;4.37;;
46363;SDS011;32071;49.036;9.344;2023-02-20T00:51:16;6.90;;;3.47;;
46363;SDS011;32071;49.036;9.344;2023-02-20T00:53:42;9.60;;;4.43;;
46363;SDS011;32071;49.036;9.344;2023-02-20T00:56:07;11.70;;;4.33;;
46363;SDS011;32071;49.036;9.344;2023-02-20T00:58:33;8.23;;;4.40;;
46363;SDS011;32071;49.036;9.344;2023-02-20T01:00:58;8.20;;;4.83;;
46363;SDS011;32071;49.036;9.344;2023-02-20T01:03:24;9.27;;;4.80;;
46363;SDS011;32071;49.036;9.344;2023-02-20T01:05:49;8.07;;;4.80;;
46363;SDS011;32071;49.036;9.344;2023-02-20T01:08:16;9.60;;;4.73;;
46363;SDS011;32071;49.036;9.344;2023-02-20T01:10:42;13.07;;;4.23;;
46363;SDS011;32071;49.036;9.344;2023-02-20T01:13:08;8.13;;;4.70;;
46363;SDS011;32071;49.036;9.344;2023-02-20T01:15:33;8.13;;;4.57;;
46363;SDS011;32071;49.036;9.344;2023-02-20T01:17:59;7.40;;;4.10;;
46363;SDS011;32071;49.036;9.344;2023-02-20T01:20:24;7.97;;;4.37;;
46363;SDS011;32071;49.036;9.344;2023-02-20T01:22:50;8.40;;;4.20;;
46363;SDS011;32071;49.036;9.344;2023-02-20T01:25:16;9.80;;;5.00;;
46363;SDS011;32071;49.036;9.344;2023-02-20T01:27:41;7.10;;;4.80;;
46363;SDS011;32071;49.036;9.344;2023-02-20T01:30:07;6.80;;;4.53;;
46363;SDS011;32071;49.036;9.344;2023-02-20T01:32:34;10.87;;;5.20;;
46363;SDS011;32071;49.036;9.344;2023-02-20T01:35:00;7.47;;;4.67;;
46363;SDS011;32071;49.036;9.344;2023-02-20T01:37:26;9.90;;;4.23;;
46363;SDS011;32071;49.036;9.344;2023-02-20T01:39:52;8.53;;;4.20;;
46363;SDS011;32071;49.036;9.344;2023-02-20T01:42:20;11.20;;;5.00;;
46363;SDS011;32071;49.036;9.344;2023-02-20T01:44:47;9.13;;;5.03;;
46363;SDS011;32071;49.036;9.344;2023-02-20T01:47:20;10.20;;;4.70;;
46363;SDS011;32071;49.036;9.344;2023-02-20T01:49:51;7.03;;;4.40;;
46363;SDS011;32071;49.036;9.344;2023-02-20T01:52:28;10.80;;;4.77;;
46363;SDS011;32071;49.036;9.344;2023-02-20T01:54:58;7.80;;;4.47;;
46363;SDS011;32071;49.036;9.344;2023-02-20T01:57:27;6.60;;;4.27;;
46363;SDS011;32071;49.036;9.344;2023-02-20T01:59:58;9.53;;;4.50;;
46363;SDS011;32071;49.036;9.344;2023-02-20T02:02:59;6.50;;;3.43;;
46363;SDS011;32071;49.036;9.344;2023-02-20T02:05:34;5.00;;;3.07;;
46363;SDS011;32071;49.036;9.344;2023-02-20T02:08:03;7.77;;;4.03;;
46363;SDS011;32071;49.036;9.344;2023-02-20T02:10:36;6.67;;;3.70;;
46363;SDS011;32071;49.036;9.344;2023-02-20T02:13:09;5.30;;;3.00;;
46363;SDS011;32071;49.036;9.344;2023-02-20T02:15:36;3.97;;;2.53;;
46363;SDS011;32071;49.036;9.344;2023-02-20T02:20:54;3.77;;;3.10;;
46363;SDS011;32071;49.036;9.344;2023-02-20T02:26:39;6.57;;;3.50;;
46363;SDS011;32071;49.036;9.344;2023-02-20T02:35:25;14.13;;;6.90;;
46363;SDS011;32071;49.036;9.344;2023-02-20T02:38:01;13.33;;;5.40;;
46363;SDS011;32071;49.036;9.344;2023-02-20T02:46:26;11.30;;;5.57;;
46363;SDS011;32071;49.036;9.344;2023-02-20T02:51:39;4.77;;;3.27;;
46363;SDS011;32071;49.036;9.344;2023-02-20T02:56:39;9.57;;;2.80;;
46363;SDS011;32071;49.036;9.344;2023-02-20T02:59:10;7.80;;;3.70;;
46363;SDS011;32071;49.036;9.344;2023-02-20T03:01:45;6.93;;;3.70;;
46363;SDS011;32071;49.036;9.344;2023-02-20T03:04:14;14.23;;;3.90;;
46363;SDS011;32071;49.036;9.344;2023-02-20T03:06:47;9.00;;;5.27;;
46363;SDS011;32071;49.036;9.344;2023-02-20T03:09:22;6.67;;;4.33;;
46363;SDS011;32071;49.036;9.344;2023-02-20T03:12:15;11.13;;;5.20;;
46363;SDS011;32071;49.036;9.344;2023-02-20T03:15:00;11.53;;;4.93;;
46363;SDS011;32071;49.036;9.344;2023-02-20T03:20:35;4.97;;;3.33;;
46363;SDS011;32071;49.036;9.344;2023-02-20T03:23:23;5.00;;;3.20;;
46363;SDS011;32071;49.036;9.344;2023-02-20T03:25:59;7.60;;;3.43;;
46363;SDS011;32071;49.036;9.344;2023-02-20T03:28:31;6.93;;;3.40;;
46363;SDS011;32071;49.036;9.344;2023-02-20T03:31:06;6.63;;;3.17;;
46363;SDS011;32071;49.036;9.344;2023-02-20T03:33:37;6.20;;;3.40;;
46363;SDS011;32071;49.036;9.344;2023-02-20T03:36:37;5.47;;;3.47;;
46363;SDS011;32071;49.036;9.344;2023-02-20T03:39:27;9.23;;;4.63;;
46363;SDS011;32071;49.036;9.344;2023-02-20T03:42:15;5.87;;;3.53;;
46363;SDS011;32071;49.036;9.344;2023-02-20T03:45:03;7.10;;;3.70;;
46363;SDS011;32071;49.036;9.344;2023-02-20T03:47:30;7.10;;;3.73;;
46363;SDS011;32071;49.036;9.344;2023-02-20T03:49:58;5.67;;;3.40;;
46363;SDS011;32071;49.036;9.344;2023-02-20T03:52:25;7.60;;;3.63;;
46363;SDS011;32071;49.036;9.344;2023-02-20T03:54:51;6.00;;;3.23;;
46363;SDS011;32071;49.036;9.344;2023-02-20T03:57:20;8.40;;;4.20;;
46363;SDS011;32071;49.036;9.344;2023-02-20T03:59:52;11.43;;;4.47;;
46363;SDS011;32071;49.036;9.344;2023-02-20T04:02:36;6.17;;;3.60;;
46363;SDS011;32071;49.036;9.344;2023-02-20T04:05:07;7.97;;;3.87;;
46363;SDS011;32071;49.036;9.344;2023-02-20T04:07:48;8.00;;;3.50;;
46363;SDS011;32071;49.036;9.344;2023-02-20T04:10:20;7.23;;;3.70;;
46363;SDS011;32071;49.036;9.344;2023-02-20T04:12:51;7.87;;;3.60;;
46363;SDS011;32071;49.036;9.344;2023-02-20T04:15:19;10.27;;;4.00;;
46363;SDS011;32071;49.036;9.344;2023-02-20T04:17:46;8.50;;;3.37;;
46363;SDS011;32071;49.036;9.344;2023-02-20T04:20:16;4.93;;;3.13;;
46363;SDS011;32071;49.036;9.344;2023-02-20T04:22:43;6.27;;;3.60;;
46363;SDS011;32071;49.036;9.344;2023-02-20T04:27:42;7.57;;;3.43;;
46363;SDS011;32071;49.036;9.344;2023-02-20T04:30:08;9.60;;;4.90;;
46363;SDS011;32071;49.036;9.344;2023-02-20T04:32:34;9.50;;;3.80;;
46363;SDS011;32071;49.036;9.344;2023-02-20T04:35:00;7.60;;;3.90;;
46363;SDS011;32071;49.036;9.344;2023-02-20T04:37:25;14.77;;;4.57;;
46363;SDS011;32071;49.036;9.344;2023-02-20T04:39:51;8.60;;;4.37;;
46363;SDS011;32071;49.036;9.344;2023-02-20T04:42:17;8.17;;;4.07;;
46363;SDS011;32071;49.036;9.344;2023-02-20T04:44:43;7.87;;;4.27;;
46363;SDS011;32071;49.036;9.344;2023-02-20T04:47:13;8.03;;;3.80;;
46363;SDS011;32071;49.036;9.344;2023-02-20T04:49:41;8.30;;;3.80;;
46363;SDS011;32071;49.036;9.344;2023-02-20T04:52:06;8.70;;;4.30;;
46363;SDS011;32071;49.036;9.344;2023-02-20T04:54:32;7.63;;;4.17;;
46363;SDS011;32071;49.036;9.344;2023-02-20T04:56:57;8.10;;;4.60;;
46363;SDS011;32071;49.036;9.344;2023-02-20T04:59:23;7.60;;;4.10;;
46363;SDS011;32071;49.036;9.344;2023-02-20T05:01:49;6.57;;;3.90;;
46363;SDS011;32071;49.036;9.344;2023-02-20T05:04:17;7.30;;;4.17;;
46363;SDS011;32071;49.036;9.344;2023-02-20T05:06:49;9.30;;;4.30;;
46363;SDS011;32071;49.036;9.344;2023-02-20T05:09:16;10.27;;;4.50;;
46363;SDS011;32071;49.036;9.344;2023-02-20T05:11:42;11.40;;;4.40;;
46363;SDS011;32071;49.036;9.344;2023-02-20T05:14:08;8.70;;;5.10;;
46363;SDS011;32071;49.036;9.344;2023-02-20T05:16:36;6.37;;;3.60;;
46363;SDS011;32071;49.036;9.344;2023-02-20T05:19:02;6.13;;;3.70;;
46363;SDS011;32071;49.036;9.344;2023-02-20T05:21:28;6.60;;;4.10;;
46363;SDS011;32071;49.036;9.344;2023-02-20T05:24:12;6.47;;;4.00;;
46363;SDS011;32071;49.036;9.344;2023-02-20T05:26:38;8.27;;;4.77;;
46363;SDS011;32071;49.036;9.344;2023-02-20T05:29:05;6.67;;;4.17;;
46363;SDS011;32071;49.036;9.344;2023-02-20T05:31:31;12.70;;;4.70;;
46363;SDS011;32071;49.036;9.344;2023-02-20T05:33:57;8.30;;;4.90;;
46363;SDS011;32071;49.036;9.344;2023-02-20T05:36:22;8.00;;;4.40;;
46363;SDS011;32071;49.036;9.344;2023-02-20T05:38:48;6.37;;;3.97;;
46363;SDS011;32071;49.036;9.344;2023-02-20T05:41:14;8.83;;;4.47;;
46363;SDS011;32071;49.036;9.344;2023-02-20T05:43:40;6.70;;;4.33;;
46363;SDS011;32071;49.036;9.344;2023-02-20T05:46:06;7.80;;;4.10;;
46363;SDS011;32071;49.036;9.344;2023-02-20T05:48:32;7.30;;;4.07;;
46363;SDS011;32071;49.036;9.344;2023-02-20T05:50:58;9.70;;;4.70;;
46363;SDS011;32071;49.036;9.344;2023-02-20T05:53:27;6.50;;;4.50;;
46363;SDS011;32071;49.036;9.344;2023-02-20T05:55:54;7.30;;;3.70;;
46363;SDS011;32071;49.036;9.344;2023-02-20T05:58:19;7.53;;;4.30;;
46363;SDS011;32071;49.036;9.344;2023-02-20T06:00:45;8.03;;;4.50;;
46363;SDS011;32071;49.036;9.344;2023-02-20T06:03:12;8.17;;;4.57;;
46363;SDS011;32071;49.036;9.344;2023-02-20T06:05:39;11.77;;;5.20;;
46363;SDS011;32071;49.036;9.344;2023-02-20T06:08:04;8.37;;;4.93;;
46363;SDS011;32071;49.036;9.344;2023-02-20T06:10:30;7.73;;;4.43;;
46363;SDS011;32071;49.036;9.344;2023-02-20T06:12:56;8.13;;;4.63;;
46363;SDS011;32071;49.036;9.344;2023-02-20T06:15:22;8.87;;;4.57;;
46363;SDS011;32071;49.036;9.344;2023-02-20T06:17:47;13.57;;;4.97;;
46363;SDS011;32071;49.036;9.344;2023-02-20T06:20:13;7.63;;;4.20;;
46363;SDS011;32071;49.036;9.344;2023-02-20T06:22:39;7.00;;;4.23;;
46363;SDS011;32071;49.036;9.344;2023-02-20T06:25:05;10.50;;;4.47;;
46363;SDS011;32071;49.036;9.344;2023-02-20T06:27:31;9.50;;;4.73;;
46363;SDS011;32071;49.036;9.344;2023-02-20T06:29:57;10.10;;;4.50;;
46363;SDS011;32071;49.036;9.344;2023-02-20T06:32:22;7.33;;;4.77;;
46363;SDS011;32071;49.036;9.344;2023-02-20T06:34:48;7.10;;;4.70;;
46363;SDS011;32071;49.036;9.344;2023-02-20T06:37:14;8.77;;;4.67;;
46363;SDS011;32071;49.036;9.344;2023-02-20T06:39:41;8.50;;;5.03;;
46363;SDS011;32071;49.036;9.344;2023-02-20T06:42:09;9.17;;;4.70;;
46363;SDS011;32071;49.036;9.344;2023-02-20T06:44:36;8.00;;;4.30;;
46363;SDS011;32071;49.036;9.344;2023-02-20T06:47:01;6.87;;;4.10;;
46363;SDS011;32071;49.036;9.344;2023-02-20T06:49:32;8.23;;;4.50;;
46363;SDS011;32071;49.036;9.344;2023-02-20T06:52:02;8.20;;;4.50;;
46363;SDS011;32071;49.036;9.344;2023-02-20T06:54:28;8.40;;;4.60;;
46363;SDS011;32071;49.036;9.344;2023-02-20T06:56:53;8.53;;;4.30;;
46363;SDS011;32071;49.036;9.344;2023-02-20T06:59:20;7.80;;;4.33;;
46363;SDS011;32071;49.036;9.344;2023-02-20T07:01:46;11.50;;;4.53;;
46363;SDS011;32071;49.036;9.344;2023-02-20T07:04:16;9.40;;;4.67;;
46363;SDS011;32071;49.036;9.344;2023-02-20T07:06:44;12.90;;;4.80;;
46363;SDS011;32071;49.036;9.344;2023-02-20T07:09:11;5.77;;;4.00;;
46363;SDS011;32071;49.036;9.344;2023-02-20T07:11:36;14.23;;;4.70;;
46363;SDS011;32071;49.036;9.344;2023-02-20T07:14:02;6.90;;;4.37;;
46363;SDS011;32071;49.036;9.344;2023-02-20T07:16:28;7.00;;;5.10;;
46363;SDS011;32071;49.036;9.344;2023-02-20T07:18:55;8.50;;;3.90;;
46363;SDS011;32071;49.036;9.344;2023-02-20T07:21:20;8.47;;;4.03;;
46363;SDS011;32071;49.036;9.344;2023-02-20T07:23:46;7.40;;;4.07;;
46363;SDS011;32071;49.036;9.344;2023-02-20T07:26:19;6.87;;;4.20;;
46363;SDS011;32071;49.036;9.344;2023-02-20T07:28:46;10.93;;;5.13;;
46363;SDS011;32071;49.036;9.344;2023-02-20T07:31:12;9.67;;;5.80;;
46363;SDS011;32071;49.036;9.344;2023-02-20T07:33:37;12.40;;;6.20;;
46363;SDS011;32071;49.036;9.344;2023-02-20T07:36:03;13.00;;;6.23;;
46363;SDS011;32071;49.036;9.344;2023-02-20T07:38:29;11.63;;;6.57;;
46363;SDS011;32071;49.036;9.344;2023-02-20T07:40:54;14.60;;;6.10;;
46363;SDS011;32071;49.036;9.344;2023-02-20T07:43:20;12.23;;;6.70;;
46363;SDS011;32071;49.036;9.344;2023-02-20T07:45:46;12.60;;;5.93;;
46363;SDS011;32071;49.036;9.344;2023-02-20T07:48:11;15.87;;;7.47;;
46363;SDS011;32071;49.036;9.344;2023-02-20T07:50:37;14.80;;;8.23;;
46363;SDS011;32071;49.036;9.344;2023-02-20T07:53:02;15.60;;;9.60;;
46363;SDS011;32071;49.036;9.344;2023-02-20T07:55:28;13.30;;;7.80;;
46363;SDS011;32071;49.036;9.344;2023-02-20T07:57:54;14.77;;;8.73;;
46363;SDS011;32071;49.036;9.344;2023-02-20T08:00:22;14.43;;;8.47;;
46363;SDS011;32071;49.036;9.344;2023-02-20T08:02:48;14.03;;;7.60;;
46363;SDS011;32071;49.036;9.344;2023-02-20T08:05:14;14.53;;;7.90;;
46363;SDS011;32071;49.036;9.344;2023-02-20T08:07:44;12.20;;;7.20;;
46363;SDS011;32071;49.036;9.344;2023-02-20T08:10:10;14.27;;;7.43;;
46363;SDS011;32071;49.036;9.344;2023-02-20T08:12:36;9.80;;;6.60;;
46363;SDS011;32071;49.036;9.344;2023-02-20T08:15:02;17.20;;;7.30;;
46363;SDS011;32071;49.036;9.344;2023-02-20T08:17:27;12.27;;;6.70;;
46363;SDS011;32071;49.036;9.344;2023-02-20T08:19:53;10.57;;;6.40;;
46363;SDS011;32071;49.036;9.344;2023-02-20T08:22:19;9.57;;;6.73;;
46363;SDS011;32071;49.036;9.344;2023-02-20T08:24:44;10.23;;;6.50;;
46363;SDS011;32071;49.036;9.344;2023-02-20T08:27:10;11.33;;;7.03;;
46363;SDS011;32071;49.036;9.344;2023-02-20T08:29:35;10.87;;;6.67;;
46363;SDS011;32071;49.036;9.344;2023-02-20T08:32:01;14.00;;;7.27;;
46363;SDS011;32071;49.036;9.344;2023-02-20T08:34:26;13.57;;;6.73;;
46363;SDS011;32071;49.036;9.344;2023-02-20T08:36:52;9.63;;;6.27;;
46363;SDS011;32071;49.036;9.344;2023-02-20T08:39:18;12.07;;;6.20;;
46363;SDS011;32071;49.036;9.344;2023-02-20T08:41:44;9.70;;;5.57;;
46363;SDS011;32071;49.036;9.344;2023-02-20T08:44:10;9.57;;;6.80;;
46363;SDS011;32071;49.036;9.344;2023-02-20T08:46:36;9.13;;;5.20;;
46363;SDS011;32071;49.036;9.344;2023-02-20T08:49:02;11.50;;;5.23;;
46363;SDS011;32071;49.036;9.344;2023-02-20T08:51:27;7.50;;;5.20;;
46363;SDS011;32071;49.036;9.344;2023-02-20T08:53:53;7.50;;;4.43;;
46363;SDS011;32071;49.036;9.344;2023-02-20T08:56:20;7.37;;;4.30;;
46363;SDS011;32071;49.036;9.344;2023-02-20T08:58:45;10.40;;;6.00;;
46363;SDS011;32071;49.036;9.344;2023-02-20T09:01:11;11.00;;;5.03;;
46363;SDS011;32071;49.036;9.344;2023-02-20T09:03:37;8.70;;;5.00;;
46363;SDS011;32071;49.036;9.344;2023-02-20T09:06:05;8.47;;;5.20;;
46363;SDS011;32071;49.036;9.344;2023-02-20T09:08:31;10.73;;;5.50;;
46363;SDS011;32071;49.036;9.344;2023-02-20T09:10:57;39.63;;;9.00;;
46363;SDS011;32071;49.036;9.344;2023-02-20T09:13:23;8.10;;;4.93;;
46363;SDS011;32071;49.036;9.344;2023-02-20T09:15:48;8.67;;;4.80;;
46363;SDS011;32071;49.036;9.344;2023-02-20T09:18:14;9.37;;;4.90;;
46363;SDS011;32071;49.036;9.344;2023-02-20T09:20:40;11.40;;;5.67;;
46363;SDS011;32071;49.036;9.344;2023-02-20T09:23:06;9.20;;;5.23;;
46363;SDS011;32071;49.036;9.344;2023-02-20T09:25:32;8.00;;;4.93;;
46363;SDS011;32071;49.036;9.344;2023-02-20T09:27:58;10.53;;;5.13;;
46363;SDS011;32071;49.036;9.344;2023-02-20T09:30:23;8.00;;;4.87;;
46363;SDS011;32071;49.036;9.344;2023-02-20T09:32:49;12.63;;;5.40;;
46363;SDS011;32071;49.036;9.344;2023-02-20T09:35:16;8.53;;;5.53;;
46363;SDS011;32071;49.036;9.344;2023-02-20T09:37:43;8.27;;;5.57;;
46363;SDS011;32071;49.036;9.344;2023-02-20T09:40:09;6.73;;;4.80;;
46363;SDS011;32071;49.036;9.344;2023-02-20T09:42:39;6.40;;;4.90;;
46363;SDS011;32071;49.036;9.344;2023-02-20T09:45:25;8.00;;;5.13;;
46363;SDS011;32071;49.036;9.344;2023-02-20T09:50:36;9.53;;;3.90;;
46363;SDS011;32071;49.036;9.344;2023-02-20T09:53:22;5.87;;;4.17;;
46363;SDS011;32071;49.036;9.344;2023-02-20T09:55:56;6.73;;;3.40;;
46363;SDS011;32071;49.036;9.344;2023-02-20T09:58:27;5.03;;;3.90;;
46363;SDS011;32071;49.036;9.344;2023-02-20T10:01:00;8.00;;;4.17;;
46363;SDS011;32071;49.036;9.344;2023-02-20T10:03:29;5.23;;;3.50;;
46363;SDS011;32071;49.036;9.344;2023-02-20T10:06:02;5.17;;;3.47;;
46363;SDS011;32071;49.036;9.344;2023-02-20T10:08:33;4.93;;;3.13;;
46363;SDS011;32071;49.036;9.344;2023-02-20T10:10:59;5.93;;;3.70;;
46363;SDS011;32071;49.036;9.344;2023-02-20T10:16:29;6.40;;;3.57;;
46363;SDS011;32071;49.036;9.344;2023-02-20T10:19:22;6.77;;;3.77;;
46363;SDS011;32071;49.036;9.344;2023-02-20T10:22:12;4.83;;;3.30;;
46363;SDS011;32071;49.036;9.344;2023-02-20T10:29:55;5.70;;;4.10;;
46363;SDS011;32071;49.036;9.344;2023-02-20T10:32:57;5.73;;;3.63;;
46363;SDS011;32071;49.036;9.344;2023-02-20T10:35:23;6.60;;;4.23;;
46363;SDS011;32071;49.036;9.344;2023-02-20T10:37:56;7.17;;;4.17;;
46363;SDS011;32071;49.036;9.344;2023-02-20T10:40:26;5.00;;;3.57;;
46363;SDS011;32071;49.036;9.344;2023-02-20T10:43:13;5.70;;;4.03;;
46363;SDS011;32071;49.036;9.344;2023-02-20T10:45:43;5.70;;;3.37;;
46363;SDS011;32071;49.036;9.344;2023-02-20T10:48:14;7.90;;;3.47;;
46363;SDS011;32071;49.036;9.344;2023-02-20T10:50:47;6.60;;;4.10;;
46363;SDS011;32071;49.036;9.344;2023-02-20T10:53:19;12.80;;;4.40;;
46363;SDS011;32071;49.036;9.344;2023-02-20T10:55:53;5.90;;;3.60;;
46363;SDS011;32071;49.036;9.344;2023-02-20T10:58:51;6.87;;;3.73;;
46363;SDS011;32071;49.036;9.344;2023-02-20T11:01:21;5.73;;;3.57;;
46363;SDS011;32071;49.036;9.344;2023-02-20T11:03:54;6.50;;;2.70;;
46363;SDS011;32071;49.036;9.344;2023-02-20T11:06:24;4.03;;;2.40;;
46363;SDS011;32071;49.036;9.344;2023-02-20T11:08:59;5.20;;;2.87;;
46363;SDS011;32071;49.036;9.344;2023-02-20T11:17:03;5.87;;;2.70;;
46363;SDS011;32071;49.036;9.344;2023-02-20T11:19:44;5.53;;;2.50;;
46363;SDS011;32071;49.036;9.344;2023-02-20T11:22:14;3.37;;;2.17;;
46363;SDS011;32071;49.036;9.344;2023-02-20T11:24:43;2.57;;;2.27;;
46363;SDS011;32071;49.036;9.344;2023-02-20T11:32:39;2.53;;;1.93;;
46363;SDS011;32071;49.036;9.344;2023-02-20T11:40:44;2.90;;;2.00;;
46363;SDS011;32071;49.036;9.344;2023-02-20T11:43:21;3.30;;;2.20;;
46363;SDS011;32071;49.036;9.344;2023-02-20T11:45:47;2.90;;;1.70;;
46363;SDS011;32071;49.036;9.344;2023-02-20T11:48:14;5.90;;;1.73;;
46363;SDS011;32071;49.036;9.344;2023-02-20T11:50:43;2.50;;;1.80;;
46363;SDS011;32071;49.036;9.344;2023-02-20T11:53:20;6.70;;;2.17;;
46363;SDS011;32071;49.036;9.344;2023-02-20T11:55:48;2.83;;;1.50;;
46363;SDS011;32071;49.036;9.344;2023-02-20T11:58:31;2.43;;;1.60;;
46363;SDS011;32071;49.036;9.344;2023-02-20T12:00:57;4.30;;;1.70;;
46363;SDS011;32071;49.036;9.344;2023-02-20T12:03:23;2.10;;;1.87;;
46363;SDS011;32071;49.036;9.344;2023-02-20T12:05:54;3.90;;;1.83;;
46363;SDS011;32071;49.036;9.344;2023-02-20T12:08:34;2.40;;;1.90;;
46363;SDS011;32071;49.036;9.344;2023-02-20T12:11:21;2.63;;;1.50;;
46363;SDS011;32071;49.036;9.344;2023-02-20T12:13:50;3.73;;;1.87;;
46363;SDS011;32071;49.036;9.344;2023-02-20T12:19:12;2.70;;;1.40;;
46363;SDS011;32071;49.036;9.344;2023-02-20T12:21:44;3.27;;;1.60;;
46363;SDS011;32071;49.036;9.344;2023-02-20T12:27:31;3.80;;;1.60;;
46363;SDS011;32071;49.036;9.344;2023-02-20T12:30:18;4.90;;;1.67;;
46363;SDS011;32071;49.036;9.344;2023-02-20T12:36:19;1.83;;;1.40;;
46363;SDS011;32071;49.036;9.344;2023-02-20T12:38:49;2.20;;;1.70;;
46363;SDS011;32071;49.036;9.344;2023-02-20T12:47:25;1.87;;;1.57;;
46363;SDS011;32071;49.036;9.344;2023-02-20T12:50:24;5.23;;;2.07;;
46363;SDS011;32071;49.036;9.344;2023-02-20T12:53:08;3.00;;;2.10;;
46363;SDS011;32071;49.036;9.344;2023-02-20T12:55:53;6.33;;;1.97;;
46363;SDS011;32071;49.036;9.344;2023-02-20T13:01:20;3.40;;;1.60;;
46363;SDS011;32071;49.036;9.344;2023-02-20T13:09:25;4.30;;;2.03;;
46363;SDS011;32071;49.036;9.344;2023-02-20T13:12:00;4.90;;;2.20;;
46363;SDS011;32071;49.036;9.344;2023-02-20T13:15:19;1.70;;;1.57;;
46363;SDS011;32071;49.036;9.344;2023-02-20T13:22:56;3.70;;;2.13;;
46363;SDS011;32071;49.036;9.344;2023-02-20T13:27:59;3.07;;;2.30;;
46363;SDS011;32071;49.036;9.344;2023-02-20T13:30:26;2.40;;;1.80;;
46363;SDS011;32071;49.036;9.344;2023-02-20T13:33:10;4.30;;;1.63;;
46363;SDS011;32071;49.036;9.344;2023-02-20T13:35:54;2.07;;;1.57;;
46363;SDS011;32071;49.036;9.344;2023-02-20T13:38:21;2.87;;;1.90;;
46363;SDS011;32071;49.036;9.344;2023-02-20T13:41:01;2.27;;;1.77;;
46363;SDS011;32071;49.036;9.344;2023-02-20T13:43:34;2.50;;;1.60;;
46363;SDS011;32071;49.036;9.344;2023-02-20T13:53:49;1.40;;;1.20;;
46363;SDS011;32071;49.036;9.344;2023-02-20T13:56:21;2.27;;;2.10;;
46363;SDS011;32071;49.036;9.344;2023-02-20T13:58:47;2.97;;;1.80;;
46363;SDS011;32071;49.036;9.344;2023-02-20T14:01:14;3.30;;;1.50;;
46363;SDS011;32071;49.036;9.344;2023-02-20T14:03:40;1.63;;;1.53;;
46363;SDS011;32071;49.036;9.344;2023-02-20T14:06:10;1.30;;;1.20;;
46363;SDS011;32071;49.036;9.344;2023-02-20T14:08:38;2.00;;;1.20;;
46363;SDS011;32071;49.036;9.344;2023-02-20T14:11:14;4.33;;;1.27;;
46363;SDS011;32071;49.036;9.344;2023-02-20T14:13:42;1.80;;;1.37;;
46363;SDS011;32071;49.036;9.344;2023-02-20T14:19:00;3.70;;;1.30;;
46363;SDS011;32071;49.036;9.344;2023-02-20T14:21:29;5.47;;;1.43;;
46363;SDS011;32071;49.036;9.344;2023-02-20T14:23:55;2.63;;;1.60;;
46363;SDS011;32071;49.036;9.344;2023-02-20T14:26:28;1.50;;;1.20;;
46363;SDS011;32071;49.036;9.344;2023-02-20T14:28:56;3.00;;;1.17;;
46363;SDS011;32071;49.036;9.344;2023-02-20T14:31:25;1.70;;;1.60;;
46363;SDS011;32071;49.036;9.344;2023-02-20T14:33:56;2.37;;;1.50;;
46363;SDS011;32071;49.036;9.344;2023-02-20T14:39:20;2.07;;;1.60;;
46363;SDS011;32071;49.036;9.344;2023-02-20T14:42:09;2.80;;;1.70;;
46363;SDS011;32071;49.036;9.344;2023-02-20T14:44:39;7.27;;;1.87;;
46363;SDS011;32071;49.036;9.344;2023-02-20T14:47:11;3.33;;;1.63;;
46363;SDS011;32071;49.036;9.344;2023-02-20T14:49:39;2.10;;;1.73;;
46363;SDS011;32071;49.036;9.344;2023-02-20T14:52:21;2.37;;;1.87;;
46363;SDS011;32071;49.036;9.344;2023-02-20T14:54:58;4.37;;;1.77;;
46363;SDS011;32071;49.036;9.344;2023-02-20T14:57:25;3.80;;;2.03;;
46363;SDS011;32071;49.036;9.344;2023-02-20T15:00:05;4.43;;;2.07;;
46363;SDS011;32071;49.036;9.344;2023-02-20T15:02:52;2.50;;;1.97;;
46363;SDS011;32071;49.036;9.344;2023-02-20T15:05:24;1.93;;;1.73;;
46363;SDS011;32071;49.036;9.344;2023-02-20T15:10:46;3.20;;;2.00;;
46363;SDS011;32071;49.036;9.344;2023-02-20T15:13:15;5.13;;;2.07;;
46363;SDS011;32071;49.036;9.344;2023-02-20T15:16:03;6.63;;;2.93;;
46363;SDS011;32071;49.036;9.344;2023-02-20T15:18:36;2.93;;;2.00;;
46363;SDS011;32071;49.036;9.344;2023-02-20T15:21:03;5.03;;;2.40;;
46363;SDS011;32071;49.036;9.344;2023-02-20T15:23:33;3.97;;;2.00;;
46363;SDS011;32071;49.036;9.344;2023-02-20T15:26:46;3.00;;;1.80;;
46363;SDS011;32071;49.036;9.344;2023-02-20T15:31:59;6.07;;;2.17;;
46363;SDS011;32071;49.036;9.344;2023-02-20T15:34:30;3.87;;;2.80;;
46363;SDS011;32071;49.036;9.344;2023-02-20T15:37:17;4.07;;;2.27;;
46363;SDS011;32071;49.036;9.344;2023-02-20T15:39:54;4.20;;;3.00;;
46363;SDS011;32071;49.036;9.344;2023-02-20T15:42:21;2.60;;;2.40;;
46363;SDS011;32071;49.036;9.344;2023-02-20T15:44:48;3.70;;;2.20;;
46363;SDS011;32071;49.036;9.344;2023-02-20T15:47:15;4.80;;;2.83;;
46363;SDS011;32071;49.036;9.344;2023-02-20T15:49:40;5.47;;;2.67;;
46363;SDS011;32071;49.036;9.344;2023-02-20T15:52:09;4.90;;;3.00;;
46363;SDS011;32071;49.036;9.344;2023-02-20T15:54:40;5.13;;;3.40;;
46363;SDS011;32071;49.036;9.344;2023-02-20T15:57:12;4.83;;;2.60;;
46363;SDS011;32071;49.036;9.344;2023-02-20T15:59:41;5.20;;;3.20;;
46363;SDS011;32071;49.036;9.344;2023-02-20T16:02:12;6.73;;;3.67;;
46363;SDS011;32071;49.036;9.344;2023-02-20T16:04:43;7.57;;;3.37;;
46363;SDS011;32071;49.036;9.344;2023-02-20T16:07:09;5.40;;;3.00;;
46363;SDS011;32071;49.036;9.344;2023-02-20T16:09:35;4.80;;;2.80;;
46363;SDS011;32071;49.036;9.344;2023-02-20T16:12:00;5.77;;;3.03;;
46363;SDS011;32071;49.036;9.344;2023-02-20T16:14:26;6.77;;;2.67;;
46363;SDS011;32071;49.036;9.344;2023-02-20T16:19:22;8.83;;;3.17;;
46363;SDS011;32071;49.036;9.344;2023-02-20T16:21:49;4.47;;;2.83;;
46363;SDS011;32071;49.036;9.344;2023-02-20T16:24:15;4.00;;;2.67;;
46363;SDS011;32071;49.036;9.344;2023-02-20T16:26:42;3.80;;;2.70;;
46363;SDS011;32071;49.036;9.344;2023-02-20T16:29:18;6.53;;;3.70;;
46363;SDS011;32071;49.036;9.344;2023-02-20T16:34:20;4.50;;;2.60;;
46363;SDS011;32071;49.036;9.344;2023-02-20T16:36:47;5.53;;;2.93;;
46363;SDS011;32071;49.036;9.344;2023-02-20T16:39:13;3.10;;;2.53;;
46363;SDS011;32071;49.036;9.344;2023-02-20T16:41:38;6.33;;;4.03;;
46363;SDS011;32071;49.036;9.344;2023-02-20T16:44:23;8.73;;;4.70;;
46363;SDS011;32071;49.036;9.344;2023-02-20T16:46:59;4.20;;;2.90;;
46363;SDS011;32071;49.036;9.344;2023-02-20T16:49:25;3.93;;;2.93;;
46363;SDS011;32071;49.036;9.344;2023-02-20T16:51:50;5.13;;;3.40;;
46363;SDS011;32071;49.036;9.344;2023-02-20T16:54:25;4.60;;;3.10;;
46363;SDS011;32071;49.036;9.344;2023-02-20T16:56:53;5.50;;;2.83;;